createdAt,value
2023-03-29T00:00:35.678Z,7.01
2023-03-29T00:03:04.169Z,6.93
2023-03-29T00:05:34.033Z,7.02
2023-03-29T00:08:04.301Z,6.97
2023-03-29T00:10:36.136Z,7.03
2023-03-29T00:13:04.224Z,6.93
2023-03-29T00:15:32.133Z,7.01
2023-03-29T00:18:00.010Z,6.96
2023-03-29T00:20:28.843Z,6.69
2023-03-29T00:22:56.918Z,6.89
2023-03-29T00:25:24.882Z,7.02
2023-03-29T00:27:54.102Z,6.82
2023-03-29T00:30:21.985Z,6.81
2023-03-29T00:32:49.999Z,7.07
2023-03-29T00:35:18.462Z,6.97
2023-03-29T00:37:47.198Z,6.88
2023-03-29T00:40:15.831Z,7.04
2023-03-29T00:42:46.176Z,6.96
2023-03-29T00:45:25.230Z,6.96
2023-03-29T00:47:57.088Z,6.91
2023-03-29T00:50:30.860Z,6.98
2023-03-29T00:53:04.674Z,7.09
2023-03-29T00:55:38.648Z,7.15
2023-03-29T00:58:09.960Z,6.99
2023-03-29T01:00:44.435Z,7.00
2023-03-29T01:03:24.693Z,6.95
2023-03-29T01:05:57.706Z,6.98
2023-03-29T01:08:30.616Z,6.94
2023-03-29T01:11:04.777Z,6.99
2023-03-29T01:13:39.423Z,6.77
2023-03-29T01:16:12.250Z,7.00
2023-03-29T01:18:41.937Z,6.95
2023-03-29T01:21:23.526Z,7.07
2023-03-29T01:24:07.906Z,6.86
2023-03-29T01:26:46.746Z,7.01
2023-03-29T01:29:21.424Z,6.70
2023-03-29T01:31:53.553Z,6.86
2023-03-29T01:34:27.694Z,6.97
2023-03-29T01:37:01.510Z,7.02
2023-03-29T01:39:29.405Z,6.98
2023-03-29T01:42:09.665Z,6.87
2023-03-29T01:44:47.345Z,6.80
2023-03-29T01:47:25.990Z,6.58
2023-03-29T01:50:02.606Z,6.76
2023-03-29T01:52:36.181Z,6.86
2023-03-29T01:55:11.276Z,6.80
2023-03-29T01:57:41.534Z,6.75
2023-03-29T02:00:15.106Z,6.75
2023-03-29T02:02:46.133Z,6.87
2023-03-29T02:05:16.298Z,6.76
2023-03-29T02:07:46.790Z,6.90
2023-03-29T02:10:16.883Z,7.06
2023-03-29T02:12:44.914Z,6.95
2023-03-29T02:15:16.119Z,6.83
2023-03-29T02:17:46.363Z,6.98
2023-03-29T02:20:22.236Z,6.91
2023-03-29T02:22:59.623Z,6.85
2023-03-29T02:25:27.684Z,6.92
2023-03-29T02:27:55.941Z,6.92
2023-03-29T02:30:31.630Z,6.72
2023-03-29T02:33:05.876Z,6.86
2023-03-29T02:35:38.565Z,6.78
2023-03-29T02:38:11.544Z,6.82
2023-03-29T02:40:42.626Z,6.73
2023-03-29T02:43:12.689Z,6.81
2023-03-29T02:45:42.922Z,6.77
2023-03-29T02:48:13.609Z,6.79
2023-03-29T02:50:44.439Z,6.70
2023-03-29T02:53:17.967Z,6.50
2023-03-29T02:55:49.197Z,6.55
2023-03-29T02:58:17.088Z,6.49
2023-03-29T03:00:49.274Z,6.50
2023-03-29T03:03:17.315Z,6.42
2023-03-29T03:05:49.141Z,6.44
2023-03-29T03:08:17.044Z,6.38
2023-03-29T03:10:45.804Z,6.20
2023-03-29T03:13:13.759Z,6.29
2023-03-29T03:15:42.878Z,6.44
2023-03-29T03:18:12.721Z,6.31
2023-03-29T03:20:40.918Z,6.30
2023-03-29T03:23:10.732Z,6.27
2023-03-29T03:25:38.784Z,6.03
2023-03-29T03:28:06.900Z,6.24
2023-03-29T03:30:34.933Z,6.17
2023-03-29T03:33:19.830Z,6.23
2023-03-29T03:36:14.469Z,6.22
2023-03-29T03:38:45.143Z,6.13
2023-03-29T03:41:13.643Z,5.91
2023-03-29T03:43:43.877Z,6.22
2023-03-29T03:46:12.351Z,6.26
2023-03-29T03:48:43.051Z,6.20
2023-03-29T03:51:17.679Z,6.25
2023-03-29T03:53:46.637Z,6.33
2023-03-29T03:56:14.852Z,6.35
2023-03-29T03:59:01.244Z,6.41
2023-03-29T04:01:35.326Z,6.39
2023-03-29T04:04:14.738Z,6.19
2023-03-29T04:06:53.484Z,6.28
2023-03-29T04:09:43.168Z,6.23
2023-03-29T04:12:22.176Z,6.38
2023-03-29T04:14:50.889Z,6.46
2023-03-29T04:17:22.958Z,6.12
2023-03-29T04:19:57.738Z,6.23
2023-03-29T04:22:28.341Z,6.33
2023-03-29T04:24:56.310Z,6.43
2023-03-29T04:27:42.664Z,6.29
2023-03-29T04:30:21.998Z,6.05
2023-03-29T04:33:09.523Z,6.11
2023-03-29T04:35:41.294Z,6.08
2023-03-29T04:38:13.787Z,6.35
2023-03-29T04:40:44.411Z,6.43
2023-03-29T04:43:32.602Z,6.41
2023-03-29T04:46:10.252Z,6.51
2023-03-29T04:49:01.025Z,5.97
2023-03-29T04:51:36.649Z,6.13
2023-03-29T04:54:04.793Z,6.24
2023-03-29T04:56:42.201Z,6.36
2023-03-29T04:59:30.612Z,6.38
2023-03-29T05:01:58.578Z,6.51
2023-03-29T05:04:28.454Z,6.47
2023-03-29T05:07:06.619Z,6.65
2023-03-29T05:09:35.673Z,6.22
2023-03-29T05:12:05.822Z,6.20
2023-03-29T05:14:46.740Z,6.38
2023-03-29T05:17:14.871Z,6.36
2023-03-29T05:19:43.449Z,6.12
2023-03-29T05:22:12.973Z,6.13
2023-03-29T05:24:42.132Z,6.20
2023-03-29T05:27:18.092Z,6.05
2023-03-29T05:29:58.526Z,6.23
2023-03-29T05:32:37.334Z,6.50
2023-03-29T05:35:06.860Z,6.12
2023-03-29T05:37:37.003Z,6.54
2023-03-29T05:40:10.044Z,6.26
2023-03-29T05:42:54.389Z,6.38
2023-03-29T05:45:23.028Z,6.27
2023-03-29T05:47:51.875Z,6.67
2023-03-29T05:50:19.913Z,6.42
2023-03-29T05:52:50.848Z,6.90
2023-03-29T05:55:19.560Z,6.96
2023-03-29T05:57:47.694Z,7.05
2023-03-29T06:00:23.417Z,7.10
2023-03-29T06:03:03.698Z,7.13
2023-03-29T06:05:39.292Z,7.14
2023-03-29T06:08:09.924Z,7.09
2023-03-29T06:11:16.610Z,7.28
2023-03-29T06:14:07.693Z,7.35
2023-03-29T06:16:42.818Z,7.82
2023-03-29T06:19:11.877Z,7.64
2023-03-29T06:21:41.288Z,7.48
2023-03-29T06:24:13.456Z,7.60
2023-03-29T06:26:47.033Z,7.88
2023-03-29T06:29:15.692Z,7.85
2023-03-29T06:31:45.400Z,8.09
2023-03-29T06:34:31.046Z,7.86
2023-03-29T06:37:19.034Z,7.65
2023-03-29T06:39:53.363Z,7.98
2023-03-29T06:42:26.837Z,8.17
2023-03-29T06:45:23.265Z,8.18
2023-03-29T06:47:52.501Z,8.19
2023-03-29T06:50:20.707Z,8.16
2023-03-29T06:52:55.031Z,8.11
2023-03-29T06:55:24.412Z,8.22
2023-03-29T06:57:54.686Z,8.40
2023-03-29T07:00:28.761Z,8.55
2023-03-29T07:03:09.923Z,8.54
2023-03-29T07:05:40.854Z,8.60
2023-03-29T07:08:16.251Z,8.70
2023-03-29T07:10:58.516Z,8.93
2023-03-29T07:13:46.331Z,8.53
2023-03-29T07:16:19.321Z,8.76
2023-03-29T07:19:13.309Z,8.55
2023-03-29T07:21:56.476Z,8.75
2023-03-29T07:24:35.582Z,8.92
2023-03-29T07:27:05.117Z,8.83
2023-03-29T07:29:34.399Z,9.29
2023-03-29T07:32:02.332Z,9.28
2023-03-29T07:34:42.155Z,8.86
2023-03-29T07:37:15.228Z,8.95
2023-03-29T07:39:45.877Z,9.39
2023-03-29T07:42:30.258Z,9.63
2023-03-29T07:44:58.699Z,9.66
2023-03-29T07:47:32.972Z,9.67
2023-03-29T07:50:00.968Z,9.61
2023-03-29T07:52:30.089Z,10.16
2023-03-29T07:54:58.900Z,10.37
2023-03-29T07:57:53.600Z,10.43
2023-03-29T08:00:24.927Z,10.55
2023-03-29T08:03:13.677Z,10.67
2023-03-29T08:05:43.236Z,10.41
2023-03-29T08:08:14.121Z,10.44
2023-03-29T08:11:09.025Z,10.17
2023-03-29T08:14:01.345Z,10.82
2023-03-29T08:16:56.396Z,10.46
2023-03-29T08:19:24.460Z,11.18
2023-03-29T08:22:04.698Z,11.15
2023-03-29T08:24:52.956Z,11.16
2023-03-29T08:27:23.133Z,10.98
2023-03-29T08:29:52.823Z,11.20
2023-03-29T08:32:21.139Z,11.41
2023-03-29T08:34:50.142Z,10.89
2023-03-29T08:37:33.120Z,11.37
2023-03-29T08:40:01.647Z,11.50
2023-03-29T08:43:14.930Z,12.07
2023-03-29T08:46:17.887Z,12.33
2023-03-29T08:48:51.362Z,12.50
2023-03-29T08:51:25.247Z,12.82
2023-03-29T08:53:56.826Z,13.51
2023-03-29T08:56:59.182Z,13.62
2023-03-29T08:59:33.160Z,12.96
2023-03-29T09:02:13.845Z,12.81
2023-03-29T09:04:43.722Z,13.42
2023-03-29T09:07:34.646Z,12.92
2023-03-29T09:10:03.497Z,13.50
2023-03-29T09:12:54.590Z,13.37
2023-03-29T09:15:29.429Z,13.81
2023-03-29T09:18:16.543Z,13.54
2023-03-29T09:20:51.745Z,13.62
2023-03-29T09:23:40.093Z,13.56
2023-03-29T09:26:42.959Z,12.65
2023-03-29T09:29:47.767Z,13.98
2023-03-29T09:32:22.397Z,13.84
2023-03-29T09:35:08.738Z,13.88
2023-03-29T09:37:39.691Z,13.05
2023-03-29T09:40:14.610Z,13.29
2023-03-29T09:42:58.888Z,13.35
2023-03-29T09:45:27.111Z,14.63
2023-03-29T09:48:00.169Z,14.21
2023-03-29T09:50:37.454Z,14.57
2023-03-29T09:53:09.426Z,14.47
2023-03-29T09:55:40.925Z,14.02
2023-03-29T09:58:24.737Z,14.58
2023-03-29T10:00:55.437Z,14.67
2023-03-29T10:03:26.528Z,14.85
2023-03-29T10:06:07.388Z,15.02
2023-03-29T10:08:40.731Z,15.57
2023-03-29T10:11:14.050Z,15.58
2023-03-29T10:13:47.262Z,16.07
2023-03-29T10:16:21.302Z,16.45
2023-03-29T10:18:50.645Z,16.22
2023-03-29T10:21:21.246Z,17.11
2023-03-29T10:23:50.958Z,16.93
2023-03-29T10:26:26.029Z,16.56
2023-03-29T10:28:57.216Z,16.12
2023-03-29T10:31:26.173Z,17.56
2023-03-29T10:33:56.744Z,17.04
2023-03-29T10:36:28.219Z,16.32
2023-03-29T10:38:59.696Z,16.10
2023-03-29T10:41:29.720Z,16.01
2023-03-29T10:43:57.575Z,15.78
2023-03-29T10:46:30.617Z,16.18
2023-03-29T10:49:00.449Z,15.52
2023-03-29T10:51:31.184Z,15.31
2023-03-29T10:53:59.639Z,15.79
2023-03-29T10:56:39.095Z,15.31
2023-03-29T10:59:29.745Z,15.00
2023-03-29T11:02:29.008Z,15.43
2023-03-29T11:05:09.167Z,15.32
2023-03-29T11:07:47.617Z,15.00
2023-03-29T11:10:30.105Z,15.08
2023-03-29T11:13:05.852Z,14.84
2023-03-29T11:15:45.281Z,15.27
2023-03-29T11:18:37.189Z,15.42
2023-03-29T11:21:15.322Z,15.24
2023-03-29T11:23:53.827Z,15.31
2023-03-29T11:26:27.100Z,15.02
2023-03-29T11:29:01.328Z,15.08
2023-03-29T11:31:38.847Z,14.51
2023-03-29T11:34:25.302Z,14.46
2023-03-29T11:37:01.058Z,14.50
2023-03-29T11:39:41.670Z,14.82
2023-03-29T11:42:17.685Z,14.12
2023-03-29T11:44:48.379Z,14.60
2023-03-29T11:47:21.623Z,14.91
2023-03-29T11:49:56.163Z,15.08
2023-03-29T11:52:30.208Z,15.15
2023-03-29T11:55:04.046Z,15.62
2023-03-29T11:57:36.366Z,15.40
2023-03-29T12:00:08.275Z,15.28
2023-03-29T12:02:46.207Z,15.40
2023-03-29T12:05:21.186Z,15.60
2023-03-29T12:07:54.635Z,15.33
2023-03-29T12:10:26.586Z,15.73
2023-03-29T12:13:01.718Z,15.91
2023-03-29T12:15:34.670Z,15.96
2023-03-29T12:18:08.425Z,16.10
2023-03-29T12:20:39.347Z,15.89
2023-03-29T12:23:14.011Z,15.42
2023-03-29T12:25:53.626Z,15.13
2023-03-29T12:28:34.530Z,15.48
2023-03-29T12:31:13.088Z,15.58
2023-03-29T12:34:14.524Z,15.86
2023-03-29T12:37:25.782Z,15.77
2023-03-29T12:40:15.582Z,14.96
2023-03-29T12:43:07.525Z,15.30
2023-03-29T12:46:09.410Z,15.58
2023-03-29T12:48:41.470Z,15.73
2023-03-29T12:51:14.250Z,15.46
2023-03-29T12:53:45.274Z,15.02
2023-03-29T12:56:16.812Z,15.33
2023-03-29T12:58:56.450Z,14.99
2023-03-29T13:01:28.644Z,15.13
2023-03-29T13:03:59.058Z,15.54
2023-03-29T13:06:33.065Z,15.72
2023-03-29T13:09:22.068Z,15.49
2023-03-29T13:11:53.665Z,15.73
2023-03-29T13:14:26.670Z,15.39
2023-03-29T13:16:55.178Z,15.37
2023-03-29T13:19:32.824Z,15.62
2023-03-29T13:22:12.281Z,15.81
2023-03-29T13:25:02.288Z,15.42
2023-03-29T13:27:39.540Z,15.58
2023-03-29T13:30:34.456Z,15.45
2023-03-29T13:33:21.370Z,15.15
2023-03-29T13:35:56.359Z,15.07
2023-03-29T13:38:28.726Z,14.97
2023-03-29T13:41:04.705Z,15.06
2023-03-29T13:43:35.821Z,15.05
2023-03-29T13:46:21.223Z,15.14
2023-03-29T13:48:55.039Z,15.06
2023-03-29T13:51:32.706Z,15.31
2023-03-29T13:54:08.026Z,14.94
2023-03-29T13:56:41.637Z,15.07
2023-03-29T13:59:15.926Z,15.16
2023-03-29T14:01:53.465Z,15.24
2023-03-29T14:04:25.691Z,15.43
2023-03-29T14:06:56.102Z,15.34
2023-03-29T14:09:30.832Z,15.49
2023-03-29T14:12:00.799Z,15.00
2023-03-29T14:14:32.093Z,14.53
2023-03-29T14:17:02.288Z,14.57
2023-03-29T14:19:32.967Z,14.92
2023-03-29T14:22:02.713Z,14.61
2023-03-29T14:24:38.331Z,14.39
2023-03-29T14:27:10.118Z,14.44
2023-03-29T14:29:38.616Z,14.30
2023-03-29T14:32:12.633Z,13.88
2023-03-29T14:34:41.160Z,13.93
2023-03-29T14:37:12.687Z,14.25
2023-03-29T14:39:42.263Z,14.13
2023-03-29T14:42:16.979Z,13.94
2023-03-29T14:44:45.707Z,14.25
2023-03-29T14:47:21.708Z,14.51
2023-03-29T14:49:49.956Z,14.48
2023-03-29T14:52:19.964Z,14.23
2023-03-29T14:54:51.986Z,14.27
2023-03-29T14:57:24.040Z,14.53
2023-03-29T14:59:55.696Z,14.58
2023-03-29T15:02:27.223Z,14.46
2023-03-29T15:05:03.469Z,14.58
2023-03-29T15:07:33.531Z,14.10
2023-03-29T15:10:03.508Z,14.52
2023-03-29T15:12:32.389Z,14.66
2023-03-29T15:15:02.512Z,14.46
2023-03-29T15:17:49.553Z,14.63
2023-03-29T15:20:23.318Z,14.59
2023-03-29T15:22:58.928Z,14.59
2023-03-29T15:25:29.362Z,14.54
2023-03-29T15:28:01.015Z,14.32
2023-03-29T15:30:37.868Z,14.41
2023-03-29T15:33:24.830Z,14.68
2023-03-29T15:35:54.670Z,14.79
2023-03-29T15:38:30.221Z,14.68
2023-03-29T15:41:02.465Z,14.71
2023-03-29T15:43:30.919Z,14.50
2023-03-29T15:45:58.877Z,14.40
2023-03-29T15:48:29.895Z,14.79
2023-03-29T15:51:00.122Z,14.67
2023-03-29T15:53:30.074Z,14.82
2023-03-29T15:56:02.541Z,14.82
2023-03-29T15:58:32.720Z,14.37
2023-03-29T16:01:12.401Z,14.51
2023-03-29T16:03:41.670Z,14.53
2023-03-29T16:06:12.425Z,14.51
2023-03-29T16:08:41.435Z,14.67
2023-03-29T16:11:09.378Z,14.51
2023-03-29T16:13:37.312Z,14.64
2023-03-29T16:16:05.975Z,14.28
2023-03-29T16:18:34.053Z,14.36
2023-03-29T16:21:03.604Z,14.32
2023-03-29T16:23:32.233Z,14.51
2023-03-29T16:26:00.275Z,14.63
2023-03-29T16:28:28.257Z,14.13
2023-03-29T16:30:56.170Z,14.48
2023-03-29T16:33:24.126Z,14.38
2023-03-29T16:35:52.321Z,14.09
2023-03-29T16:38:21.795Z,14.27
2023-03-29T16:40:49.826Z,14.48
2023-03-29T16:43:18.667Z,14.53
2023-03-29T16:45:46.630Z,14.27
2023-03-29T16:48:17.240Z,14.08
2023-03-29T16:50:45.782Z,14.05
2023-03-29T16:53:13.629Z,14.21
2023-03-29T16:55:42.853Z,14.06
2023-03-29T16:58:10.698Z,14.26
2023-03-29T17:00:38.824Z,14.10
2023-03-29T17:03:07.881Z,14.43
2023-03-29T17:05:41.441Z,14.29
2023-03-29T17:08:10.188Z,14.44
2023-03-29T17:10:40.621Z,14.48
2023-03-29T17:13:09.816Z,14.51
2023-03-29T17:15:39.722Z,14.29
2023-03-29T17:18:07.971Z,14.27
2023-03-29T17:20:35.966Z,14.10
2023-03-29T17:23:03.828Z,14.26
2023-03-29T17:25:31.708Z,13.83
2023-03-29T17:27:59.552Z,14.08
2023-03-29T17:30:28.845Z,13.89
2023-03-29T17:32:56.784Z,14.16
2023-03-29T17:35:24.733Z,14.20
2023-03-29T17:37:52.570Z,14.22
2023-03-29T17:40:20.457Z,14.28
2023-03-29T17:42:48.897Z,14.44
2023-03-29T17:45:17.259Z,14.33
2023-03-29T17:47:46.975Z,14.37
2023-03-29T17:50:14.964Z,14.29
2023-03-29T17:52:42.971Z,14.47
2023-03-29T17:55:13.680Z,14.30
2023-03-29T17:57:42.452Z,14.40
2023-03-29T18:00:13.359Z,14.30
2023-03-29T18:02:41.851Z,14.35
2023-03-29T18:05:11.718Z,14.33
2023-03-29T18:07:39.569Z,14.16
2023-03-29T18:10:08.708Z,14.31
2023-03-29T18:12:36.733Z,14.20
2023-03-29T18:15:05.040Z,14.26
2023-03-29T18:17:35.417Z,14.10
2023-03-29T18:20:06.230Z,13.98
2023-03-29T18:22:35.684Z,14.23
2023-03-29T18:25:05.560Z,14.26
2023-03-29T18:27:33.573Z,14.25
2023-03-29T18:30:02.207Z,14.29
2023-03-29T18:32:30.288Z,14.35
2023-03-29T18:34:58.294Z,14.33
2023-03-29T18:37:26.157Z,14.39
2023-03-29T18:39:55.626Z,14.26
2023-03-29T18:42:23.554Z,14.26
2023-03-29T18:44:51.849Z,14.36
2023-03-29T18:47:19.747Z,14.39
2023-03-29T18:49:48.033Z,14.29
2023-03-29T18:52:15.898Z,14.17
2023-03-29T18:54:43.735Z,14.17
2023-03-29T18:57:13.002Z,14.05
2023-03-29T18:59:40.948Z,14.04
2023-03-29T19:02:08.795Z,13.97
2023-03-29T19:04:36.758Z,14.13
2023-03-29T19:07:04.655Z,14.10
2023-03-29T19:09:32.683Z,14.10
2023-03-29T19:12:00.677Z,14.11
2023-03-29T19:14:30.110Z,13.95
2023-03-29T19:16:58.000Z,14.08
2023-03-29T19:19:26.433Z,14.10
2023-03-29T19:21:54.987Z,13.78
2023-03-29T19:24:23.054Z,13.96
2023-03-29T19:26:51.987Z,14.07
2023-03-29T19:29:19.978Z,13.84
2023-03-29T19:31:51.817Z,13.86
2023-03-29T19:34:22.889Z,14.05
2023-03-29T19:36:50.957Z,13.99
2023-03-29T19:39:18.983Z,13.98
2023-03-29T19:41:46.825Z,14.05
2023-03-29T19:44:14.716Z,14.02
2023-03-29T19:46:42.673Z,13.74
2023-03-29T19:49:13.676Z,13.92
2023-03-29T19:51:41.918Z,13.81
2023-03-29T19:54:12.665Z,13.70
2023-03-29T19:56:42.618Z,13.93
2023-03-29T19:59:11.237Z,13.95
2023-03-29T20:01:42.677Z,13.94
2023-03-29T20:04:12.035Z,13.68
2023-03-29T20:06:39.947Z,13.56
2023-03-29T20:09:07.911Z,13.55
2023-03-29T20:11:36.141Z,13.72
2023-03-29T20:14:04.015Z,13.76
2023-03-29T20:16:34.300Z,13.80
2023-03-29T20:19:02.609Z,13.80
2023-03-29T20:21:33.556Z,13.43
2023-03-29T20:24:01.596Z,13.74
2023-03-29T20:26:29.434Z,13.68
2023-03-29T20:28:57.324Z,13.78
2023-03-29T20:31:25.466Z,13.71
2023-03-29T20:33:53.687Z,13.35
2023-03-29T20:36:23.083Z,13.57
2023-03-29T20:38:52.580Z,13.66
2023-03-29T20:41:20.680Z,13.74
2023-03-29T20:43:48.606Z,13.70
2023-03-29T20:46:18.341Z,13.73
2023-03-29T20:48:53.176Z,13.86
2023-03-29T20:51:21.401Z,13.57
2023-03-29T20:53:50.650Z,13.64
2023-03-29T20:56:20.902Z,13.65
2023-03-29T20:58:48.897Z,13.53
2023-03-29T21:01:16.818Z,13.73
2023-03-29T21:03:45.015Z,13.55
2023-03-29T21:06:14.279Z,13.79
2023-03-29T21:08:43.678Z,13.67
2023-03-29T21:11:13.060Z,13.31
2023-03-29T21:13:42.595Z,13.52
2023-03-29T21:16:11.508Z,13.47
2023-03-29T21:18:41.612Z,13.69
2023-03-29T21:21:10.063Z,13.54
2023-03-29T21:23:38.644Z,13.62
2023-03-29T21:26:07.822Z,13.71
2023-03-29T21:28:37.572Z,13.55
2023-03-29T21:31:07.634Z,13.70
2023-03-29T21:33:36.183Z,13.61
2023-03-29T21:36:04.284Z,13.69
2023-03-29T21:38:32.289Z,13.63
2023-03-29T21:41:01.097Z,13.72
2023-03-29T21:43:29.087Z,13.70
2023-03-29T21:45:57.588Z,13.60
2023-03-29T21:48:27.212Z,13.61
2023-03-29T21:50:55.125Z,13.62
2023-03-29T21:53:24.555Z,13.31
2023-03-29T21:55:53.064Z,13.30
2023-03-29T21:58:21.569Z,13.47
2023-03-29T22:00:49.926Z,13.43
2023-03-29T22:03:18.080Z,13.50
2023-03-29T22:05:58.384Z,13.57
2023-03-29T22:08:26.990Z,13.61
2023-03-29T22:10:56.746Z,13.52
2023-03-29T22:13:26.115Z,13.67
2023-03-29T22:15:58.925Z,13.70
2023-03-29T22:18:27.953Z,13.68
2023-03-29T22:20:57.628Z,13.66
2023-03-29T22:23:25.761Z,13.33
2023-03-29T22:25:53.658Z,13.59
2023-03-29T22:28:21.592Z,13.59
2023-03-29T22:30:49.588Z,13.57
2023-03-29T22:33:17.490Z,13.26
2023-03-29T22:35:45.589Z,13.48
2023-03-29T22:38:14.837Z,13.43
2023-03-29T22:40:42.702Z,13.29
2023-03-29T22:43:10.575Z,13.37
2023-03-29T22:45:38.491Z,13.19
2023-03-29T22:48:06.736Z,13.37
2023-03-29T22:50:34.727Z,13.32
2023-03-29T22:53:02.861Z,13.46
2023-03-29T22:55:32.316Z,13.27
2023-03-29T22:58:00.423Z,13.38
2023-03-29T23:00:28.533Z,13.46
2023-03-29T23:02:56.959Z,13.52
2023-03-29T23:05:24.946Z,13.48
2023-03-29T23:07:53.064Z,13.38
2023-03-29T23:10:21.012Z,13.33
2023-03-29T23:12:50.481Z,13.27
2023-03-29T23:15:22.766Z,13.12
2023-03-29T23:17:50.778Z,13.27
2023-03-29T23:20:21.010Z,13.10
2023-03-29T23:22:48.993Z,13.20
2023-03-29T23:25:16.983Z,13.34
2023-03-29T23:27:44.851Z,13.33
2023-03-29T23:30:14.345Z,13.34
2023-03-29T23:32:42.669Z,13.42
2023-03-29T23:35:10.771Z,13.25
2023-03-29T23:37:39.436Z,13.24
2023-03-29T23:40:11.629Z,13.33
2023-03-29T23:42:40.115Z,13.36
2023-03-29T23:45:08.964Z,13.32
2023-03-29T23:47:38.342Z,13.21
2023-03-29T23:50:08.430Z,13.08
2023-03-29T23:52:37.034Z,13.14
2023-03-29T23:55:05.669Z,13.07
2023-03-29T23:57:35.021Z,13.08
